sensor_id;sensor_type;location;lat;lon;timestamp;P1;P2;P0
77365;PMS5003;66430;50.182;11.704;2024-02-21T00:00:32;18;13;
77365;PMS5003;66430;50.182;11.704;2024-02-21T00:02:58;15;12;
77365;PMS5003;66430;50.182;11.704;2024-02-21T00:05:29;12;11;
77365;PMS5003;66430;50.182;11.704;2024-02-21T00:07:48;15;12;
77365;PMS5003;66430;50.182;11.704;2024-02-21T00:10:13;16;14;
77365;PMS5003;66430;50.182;11.704;2024-02-21T00:12:38;11;11;
77365;PMS5003;66430;50.182;11.704;2024-02-21T00:15:06;19;16;
77365;PMS5003;66430;50.182;11.704;2024-02-21T00:17:30;12;11;
77365;PMS5003;66430;50.182;11.704;2024-02-21T00:19:55;16;16;
77365;PMS5003;66430;50.182;11.704;2024-02-21T00:22:21;10;9;
77365;PMS5003;66430;50.182;11.704;2024-02-21T00:24:46;14;9;
77365;PMS5003;66430;50.182;11.704;2024-02-21T00:27:12;12;11;
77365;PMS5003;66430;50.182;11.704;2024-02-21T00:29:37;11;10;
77365;PMS5003;66430;50.182;11.704;2024-02-21T00:32:02;16;12;
77365;PMS5003;66430;50.182;11.704;2024-02-21T00:34:28;12;11;
77365;PMS5003;66430;50.182;11.704;2024-02-21T00:36:55;16;12;
77365;PMS5003;66430;50.182;11.704;2024-02-21T00:39:19;15;11;
77365;PMS5003;66430;50.182;11.704;2024-02-21T00:41:46;14;14;
77365;PMS5003;66430;50.182;11.704;2024-02-21T00:44:10;14;13;
77365;PMS5003;66430;50.182;11.704;2024-02-21T00:46:35;11;11;
77365;PMS5003;66430;50.182;11.704;2024-02-21T00:49:01;14;13;
77365;PMS5003;66430;50.182;11.704;2024-02-21T00:51:26;17;12;
77365;PMS5003;66430;50.182;11.704;2024-02-21T00:53:52;18;12;
77365;PMS5003;66430;50.182;11.704;2024-02-21T00:56:17;9;9;
77365;PMS5003;66430;50.182;11.704;2024-02-21T00:58:43;22;18;
77365;PMS5003;66430;50.182;11.704;2024-02-21T01:01:09;11;10;
77365;PMS5003;66430;50.182;11.704;2024-02-21T01:03:34;13;10;
77365;PMS5003;66430;50.182;11.704;2024-02-21T01:06:02;11;11;
77365;PMS5003;66430;50.182;11.704;2024-02-21T01:08:26;19;11;
77365;PMS5003;66430;50.182;11.704;2024-02-21T01:10:50;14;13;
77365;PMS5003;66430;50.182;11.704;2024-02-21T01:13:23;12;11;
77365;PMS5003;66430;50.182;11.704;2024-02-21T01:15:41;11;9;
77365;PMS5003;66430;50.182;11.704;2024-02-21T01:18:07;14;11;
77365;PMS5003;66430;50.182;11.704;2024-02-21T01:20:32;11;10;
77365;PMS5003;66430;50.182;11.704;2024-02-21T01:22:57;12;11;
77365;PMS5003;66430;50.182;11.704;2024-02-21T01:25:23;10;9;
77365;PMS5003;66430;50.182;11.704;2024-02-21T01:27:48;13;10;
77365;PMS5003;66430;50.182;11.704;2024-02-21T01:30:16;19;15;
77365;PMS5003;66430;50.182;11.704;2024-02-21T01:32:40;14;12;
77365;PMS5003;66430;50.182;11.704;2024-02-21T01:35:05;10;10;
77365;PMS5003;66430;50.182;11.704;2024-02-21T01:37:30;9;9;
77365;PMS5003;66430;50.182;11.704;2024-02-21T01:39:55;15;13;
77365;PMS5003;66430;50.182;11.704;2024-02-21T01:42:21;17;12;
77365;PMS5003;66430;50.182;11.704;2024-02-21T01:44:47;18;15;
77365;PMS5003;66430;50.182;11.704;2024-02-21T01:47:12;13;10;
77365;PMS5003;66430;50.182;11.704;2024-02-21T01:49:37;11;9;
77365;PMS5003;66430;50.182;11.704;2024-02-21T01:52:03;15;12;
77365;PMS5003;66430;50.182;11.704;2024-02-21T01:54:28;12;11;
77365;PMS5003;66430;50.182;11.704;2024-02-21T01:56:53;15;13;
77365;PMS5003;66430;50.182;11.704;2024-02-21T01:59:19;10;10;
77365;PMS5003;66430;50.182;11.704;2024-02-21T02:01:44;18;18;
77365;PMS5003;66430;50.182;11.704;2024-02-21T02:04:09;15;14;
77365;PMS5003;66430;50.182;11.704;2024-02-21T02:06:35;15;11;
77365;PMS5003;66430;50.182;11.704;2024-02-21T02:09:01;12;11;
77365;PMS5003;66430;50.182;11.704;2024-02-21T02:11:32;14;12;
77365;PMS5003;66430;50.182;11.704;2024-02-21T02:13:52;13;11;
77365;PMS5003;66430;50.182;11.704;2024-02-21T02:16:18;14;9;
77365;PMS5003;66430;50.182;11.704;2024-02-21T02:18:43;14;11;
77365;PMS5003;66430;50.182;11.704;2024-02-21T02:21:10;15;12;
77365;PMS5003;66430;50.182;11.704;2024-02-21T02:23:34;14;12;
77365;PMS5003;66430;50.182;11.704;2024-02-21T02:26:00;17;13;
77365;PMS5003;66430;50.182;11.704;2024-02-21T02:28:25;12;12;
77365;PMS5003;66430;50.182;11.704;2024-02-21T02:30:51;12;11;
77365;PMS5003;66430;50.182;11.704;2024-02-21T02:33:16;15;12;
77365;PMS5003;66430;50.182;11.704;2024-02-21T02:35:42;12;11;
77365;PMS5003;66430;50.182;11.704;2024-02-21T02:38:07;22;14;
77365;PMS5003;66430;50.182;11.704;2024-02-21T02:40:33;15;14;
77365;PMS5003;66430;50.182;11.704;2024-02-21T02:42:58;11;9;
77365;PMS5003;66430;50.182;11.704;2024-02-21T02:45:23;13;13;
77365;PMS5003;66430;50.182;11.704;2024-02-21T02:47:48;18;15;
77365;PMS5003;66430;50.182;11.704;2024-02-21T02:50:14;14;13;
77365;PMS5003;66430;50.182;11.704;2024-02-21T02:52:39;13;9;
77365;PMS5003;66430;50.182;11.704;2024-02-21T02:55:05;12;11;
77365;PMS5003;66430;50.182;11.704;2024-02-21T02:57:30;13;10;
77365;PMS5003;66430;50.182;11.704;2024-02-21T02:59:56;12;12;
77365;PMS5003;66430;50.182;11.704;2024-02-21T03:02:22;12;11;
77365;PMS5003;66430;50.182;11.704;2024-02-21T03:04:47;17;11;
77365;PMS5003;66430;50.182;11.704;2024-02-21T03:07:13;17;12;
77365;PMS5003;66430;50.182;11.704;2024-02-21T03:09:38;12;11;
77365;PMS5003;66430;50.182;11.704;2024-02-21T03:12:03;15;12;
77365;PMS5003;66430;50.182;11.704;2024-02-21T03:14:28;15;12;
77365;PMS5003;66430;50.182;11.704;2024-02-21T03:16:54;19;17;
77365;PMS5003;66430;50.182;11.704;2024-02-21T03:19:19;9;9;
77365;PMS5003;66430;50.182;11.704;2024-02-21T03:21:45;11;10;
77365;PMS5003;66430;50.182;11.704;2024-02-21T03:24:10;11;11;
77365;PMS5003;66430;50.182;11.704;2024-02-21T03:26:41;12;10;
77365;PMS5003;66430;50.182;11.704;2024-02-21T03:29:01;14;11;
77365;PMS5003;66430;50.182;11.704;2024-02-21T03:31:27;14;14;
77365;PMS5003;66430;50.182;11.704;2024-02-21T03:33:52;18;12;
77365;PMS5003;66430;50.182;11.704;2024-02-21T03:36:18;12;11;
77365;PMS5003;66430;50.182;11.704;2024-02-21T03:38:42;13;10;
77365;PMS5003;66430;50.182;11.704;2024-02-21T03:41:08;11;11;
77365;PMS5003;66430;50.182;11.704;2024-02-21T03:43:37;15;12;
77365;PMS5003;66430;50.182;11.704;2024-02-21T03:45:59;13;12;
77365;PMS5003;66430;50.182;11.704;2024-02-21T03:48:25;14;11;
77365;PMS5003;66430;50.182;11.704;2024-02-21T03:50:51;14;12;
77365;PMS5003;66430;50.182;11.704;2024-02-21T03:53:16;17;13;
77365;PMS5003;66430;50.182;11.704;2024-02-21T03:55:42;13;13;
77365;PMS5003;66430;50.182;11.704;2024-02-21T03:58:07;14;14;
77365;PMS5003;66430;50.182;11.704;2024-02-21T04:00:32;17;11;
77365;PMS5003;66430;50.182;11.704;2024-02-21T04:02:58;17;13;
77365;PMS5003;66430;50.182;11.704;2024-02-21T04:05:23;22;18;
77365;PMS5003;66430;50.182;11.704;2024-02-21T04:07:49;13;12;
77365;PMS5003;66430;50.182;11.704;2024-02-21T04:10:15;14;13;
77365;PMS5003;66430;50.182;11.704;2024-02-21T04:12:40;18;14;
77365;PMS5003;66430;50.182;11.704;2024-02-21T04:15:06;17;15;
77365;PMS5003;66430;50.182;11.704;2024-02-21T04:17:31;14;11;
77365;PMS5003;66430;50.182;11.704;2024-02-21T04:20:01;15;11;
77365;PMS5003;66430;50.182;11.704;2024-02-21T04:22:22;16;16;
77365;PMS5003;66430;50.182;11.704;2024-02-21T04:24:48;11;11;
77365;PMS5003;66430;50.182;11.704;2024-02-21T04:27:13;19;14;
77365;PMS5003;66430;50.182;11.704;2024-02-21T04:29:38;21;18;
77365;PMS5003;66430;50.182;11.704;2024-02-21T04:32:04;22;17;
77365;PMS5003;66430;50.182;11.704;2024-02-21T04:34:29;20;17;
77365;PMS5003;66430;50.182;11.704;2024-02-21T04:36:55;19;19;
77365;PMS5003;66430;50.182;11.704;2024-02-21T04:39:20;15;14;
77365;PMS5003;66430;50.182;11.704;2024-02-21T04:41:46;13;11;
77365;PMS5003;66430;50.182;11.704;2024-02-21T04:44:11;14;13;
77365;PMS5003;66430;50.182;11.704;2024-02-21T04:46:36;20;18;
77365;PMS5003;66430;50.182;11.704;2024-02-21T04:49:02;12;12;
77365;PMS5003;66430;50.182;11.704;2024-02-21T04:51:27;18;14;
77365;PMS5003;66430;50.182;11.704;2024-02-21T04:53:53;17;13;
77365;PMS5003;66430;50.182;11.704;2024-02-21T04:56:18;18;14;
77365;PMS5003;66430;50.182;11.704;2024-02-21T04:58:43;15;12;
77365;PMS5003;66430;50.182;11.704;2024-02-21T05:01:09;13;12;
77365;PMS5003;66430;50.182;11.704;2024-02-21T05:03:34;14;11;
77365;PMS5003;66430;50.182;11.704;2024-02-21T05:06:01;18;15;
77365;PMS5003;66430;50.182;11.704;2024-02-21T05:08:25;15;11;
77365;PMS5003;66430;50.182;11.704;2024-02-21T05:10:52;17;14;
77365;PMS5003;66430;50.182;11.704;2024-02-21T05:13:17;13;13;
77365;PMS5003;66430;50.182;11.704;2024-02-21T05:15:42;18;13;
77365;PMS5003;66430;50.182;11.704;2024-02-21T05:18:07;15;14;
77365;PMS5003;66430;50.182;11.704;2024-02-21T05:20:33;23;21;
77365;PMS5003;66430;50.182;11.704;2024-02-21T05:22:58;18;15;
77365;PMS5003;66430;50.182;11.704;2024-02-21T05:25:24;18;14;
77365;PMS5003;66430;50.182;11.704;2024-02-21T05:27:51;18;14;
77365;PMS5003;66430;50.182;11.704;2024-02-21T05:30:15;21;18;
77365;PMS5003;66430;50.182;11.704;2024-02-21T05:32:40;14;10;
77365;PMS5003;66430;50.182;11.704;2024-02-21T05:35:06;19;18;
77365;PMS5003;66430;50.182;11.704;2024-02-21T05:37:32;14;14;
77365;PMS5003;66430;50.182;11.704;2024-02-21T05:39:57;17;15;
77365;PMS5003;66430;50.182;11.704;2024-02-21T05:42:22;14;14;
77365;PMS5003;66430;50.182;11.704;2024-02-21T05:44:48;21;20;
77365;PMS5003;66430;50.182;11.704;2024-02-21T05:47:13;13;13;
77365;PMS5003;66430;50.182;11.704;2024-02-21T05:49:39;22;17;
77365;PMS5003;66430;50.182;11.704;2024-02-21T05:52:07;22;17;
77365;PMS5003;66430;50.182;11.704;2024-02-21T05:54:30;21;19;
77365;PMS5003;66430;50.182;11.704;2024-02-21T05:56:56;18;16;
77365;PMS5003;66430;50.182;11.704;2024-02-21T05:59:21;17;16;
77365;PMS5003;66430;50.182;11.704;2024-02-21T06:04:13;20;14;
77365;PMS5003;66430;50.182;11.704;2024-02-21T06:06:38;14;14;
77365;PMS5003;66430;50.182;11.704;2024-02-21T06:09:06;17;13;
77365;PMS5003;66430;50.182;11.704;2024-02-21T06:11:31;18;13;
77365;PMS5003;66430;50.182;11.704;2024-02-21T06:13:56;13;13;
77365;PMS5003;66430;50.182;11.704;2024-02-21T06:16:20;21;18;
77365;PMS5003;66430;50.182;11.704;2024-02-21T06:18:45;20;18;
77365;PMS5003;66430;50.182;11.704;2024-02-21T06:21:16;19;15;
77365;PMS5003;66430;50.182;11.704;2024-02-21T06:23:36;12;12;
77365;PMS5003;66430;50.182;11.704;2024-02-21T06:26:02;26;19;
77365;PMS5003;66430;50.182;11.704;2024-02-21T06:28:27;14;12;
77365;PMS5003;66430;50.182;11.704;2024-02-21T06:30:53;20;18;
77365;PMS5003;66430;50.182;11.704;2024-02-21T06:33:18;14;12;
77365;PMS5003;66430;50.182;11.704;2024-02-21T06:35:44;15;15;
77365;PMS5003;66430;50.182;11.704;2024-02-21T06:38:09;16;14;
77365;PMS5003;66430;50.182;11.704;2024-02-21T06:40:35;13;13;
77365;PMS5003;66430;50.182;11.704;2024-02-21T06:43:00;20;17;
77365;PMS5003;66430;50.182;11.704;2024-02-21T06:45:25;20;17;
77365;PMS5003;66430;50.182;11.704;2024-02-21T06:47:52;16;13;
77365;PMS5003;66430;50.182;11.704;2024-02-21T06:50:17;14;13;
77365;PMS5003;66430;50.182;11.704;2024-02-21T06:52:42;14;12;
77365;PMS5003;66430;50.182;11.704;2024-02-21T06:55:08;16;16;
77365;PMS5003;66430;50.182;11.704;2024-02-21T06:57:33;16;13;
77365;PMS5003;66430;50.182;11.704;2024-02-21T06:59:59;17;12;
77365;PMS5003;66430;50.182;11.704;2024-02-21T07:02:24;20;17;
77365;PMS5003;66430;50.182;11.704;2024-02-21T07:04:50;21;18;
77365;PMS5003;66430;50.182;11.704;2024-02-21T07:07:16;22;20;
77365;PMS5003;66430;50.182;11.704;2024-02-21T07:09:41;18;17;
77365;PMS5003;66430;50.182;11.704;2024-02-21T07:12:07;20;20;
77365;PMS5003;66430;50.182;11.704;2024-02-21T07:14:32;18;13;
77365;PMS5003;66430;50.182;11.704;2024-02-21T07:16:58;17;13;
77365;PMS5003;66430;50.182;11.704;2024-02-21T07:19:23;17;12;
77365;PMS5003;66430;50.182;11.704;2024-02-21T07:21:49;17;15;
77365;PMS5003;66430;50.182;11.704;2024-02-21T07:24:14;18;15;
77365;PMS5003;66430;50.182;11.704;2024-02-21T07:26:41;19;16;
77365;PMS5003;66430;50.182;11.704;2024-02-21T07:29:06;15;14;
77365;PMS5003;66430;50.182;11.704;2024-02-21T07:31:31;16;12;
77365;PMS5003;66430;50.182;11.704;2024-02-21T07:33:56;19;14;
77365;PMS5003;66430;50.182;11.704;2024-02-21T07:36:28;16;13;
77365;PMS5003;66430;50.182;11.704;2024-02-21T07:38:48;18;14;
77365;PMS5003;66430;50.182;11.704;2024-02-21T07:41:15;16;15;
77365;PMS5003;66430;50.182;11.704;2024-02-21T07:43:38;23;19;
77365;PMS5003;66430;50.182;11.704;2024-02-21T07:46:05;18;16;
77365;PMS5003;66430;50.182;11.704;2024-02-21T07:48:31;16;14;
77365;PMS5003;66430;50.182;11.704;2024-02-21T07:50:55;19;16;
77365;PMS5003;66430;50.182;11.704;2024-02-21T07:53:20;20;18;
77365;PMS5003;66430;50.182;11.704;2024-02-21T07:55:46;21;19;
77365;PMS5003;66430;50.182;11.704;2024-02-21T07:58:11;22;16;
77365;PMS5003;66430;50.182;11.704;2024-02-21T08:00:36;20;19;
77365;PMS5003;66430;50.182;11.704;2024-02-21T08:03:02;18;15;
77365;PMS5003;66430;50.182;11.704;2024-02-21T08:05:27;18;15;
77365;PMS5003;66430;50.182;11.704;2024-02-21T08:07:53;15;15;
77365;PMS5003;66430;50.182;11.704;2024-02-21T08:10:17;18;15;
77365;PMS5003;66430;50.182;11.704;2024-02-21T08:12:43;15;15;
77365;PMS5003;66430;50.182;11.704;2024-02-21T08:15:09;20;19;
77365;PMS5003;66430;50.182;11.704;2024-02-21T08:17:35;21;19;
77365;PMS5003;66430;50.182;11.704;2024-02-21T08:20:00;17;15;
77365;PMS5003;66430;50.182;11.704;2024-02-21T08:22:26;18;18;
77365;PMS5003;66430;50.182;11.704;2024-02-21T08:24:52;25;16;
77365;PMS5003;66430;50.182;11.704;2024-02-21T08:27:17;13;13;
77365;PMS5003;66430;50.182;11.704;2024-02-21T08:29:42;19;15;
77365;PMS5003;66430;50.182;11.704;2024-02-21T08:32:08;15;15;
77365;PMS5003;66430;50.182;11.704;2024-02-21T08:34:33;16;15;
77365;PMS5003;66430;50.182;11.704;2024-02-21T08:36:59;18;17;
77365;PMS5003;66430;50.182;11.704;2024-02-21T08:39:24;18;15;
77365;PMS5003;66430;50.182;11.704;2024-02-21T08:41:50;17;14;
77365;PMS5003;66430;50.182;11.704;2024-02-21T08:44:15;16;13;
77365;PMS5003;66430;50.182;11.704;2024-02-21T08:46:40;19;15;
77365;PMS5003;66430;50.182;11.704;2024-02-21T08:49:05;15;14;
77365;PMS5003;66430;50.182;11.704;2024-02-21T08:51:31;17;14;
77365;PMS5003;66430;50.182;11.704;2024-02-21T08:53:57;22;14;
77365;PMS5003;66430;50.182;11.704;2024-02-21T08:56:22;22;16;
77365;PMS5003;66430;50.182;11.704;2024-02-21T08:58:47;17;17;
77365;PMS5003;66430;50.182;11.704;2024-02-21T09:01:13;17;15;
77365;PMS5003;66430;50.182;11.704;2024-02-21T09:03:38;16;15;
77365;PMS5003;66430;50.182;11.704;2024-02-21T09:06:04;14;14;
77365;PMS5003;66430;50.182;11.704;2024-02-21T09:08:29;18;17;
77365;PMS5003;66430;50.182;11.704;2024-02-21T09:10:54;17;16;
77365;PMS5003;66430;50.182;11.704;2024-02-21T09:13:20;18;13;
77365;PMS5003;66430;50.182;11.704;2024-02-21T09:15:46;16;16;
77365;PMS5003;66430;50.182;11.704;2024-02-21T09:18:10;14;13;
77365;PMS5003;66430;50.182;11.704;2024-02-21T09:20:36;18;15;
77365;PMS5003;66430;50.182;11.704;2024-02-21T09:23:07;19;16;
77365;PMS5003;66430;50.182;11.704;2024-02-21T09:25:27;17;14;
77365;PMS5003;66430;50.182;11.704;2024-02-21T09:27:53;17;17;
77365;PMS5003;66430;50.182;11.704;2024-02-21T09:30:18;17;17;
77365;PMS5003;66430;50.182;11.704;2024-02-21T09:32:44;15;14;
77365;PMS5003;66430;50.182;11.704;2024-02-21T09:35:09;15;13;
77365;PMS5003;66430;50.182;11.704;2024-02-21T09:37:34;20;18;
77365;PMS5003;66430;50.182;11.704;2024-02-21T09:40:00;14;10;
77365;PMS5003;66430;50.182;11.704;2024-02-21T09:42:29;12;12;
77365;PMS5003;66430;50.182;11.704;2024-02-21T09:44:51;16;16;
77365;PMS5003;66430;50.182;11.704;2024-02-21T09:47:17;14;14;
77365;PMS5003;66430;50.182;11.704;2024-02-21T09:49:42;18;13;
77365;PMS5003;66430;50.182;11.704;2024-02-21T09:52:07;15;14;
77365;PMS5003;66430;50.182;11.704;2024-02-21T09:54:32;16;13;
77365;PMS5003;66430;50.182;11.704;2024-02-21T09:56:58;13;13;
77365;PMS5003;66430;50.182;11.704;2024-02-21T09:59:23;15;13;
77365;PMS5003;66430;50.182;11.704;2024-02-21T10:01:49;17;14;
77365;PMS5003;66430;50.182;11.704;2024-02-21T10:04:14;18;13;
77365;PMS5003;66430;50.182;11.704;2024-02-21T10:06:39;14;14;
77365;PMS5003;66430;50.182;11.704;2024-02-21T10:09:05;14;13;
77365;PMS5003;66430;50.182;11.704;2024-02-21T10:11:30;13;13;
77365;PMS5003;66430;50.182;11.704;2024-02-21T10:16:20;27;20;
77365;PMS5003;66430;50.182;11.704;2024-02-21T10:18:46;15;15;
77365;PMS5003;66430;50.182;11.704;2024-02-21T10:21:12;17;14;
77365;PMS5003;66430;50.182;11.704;2024-02-21T10:23:43;19;16;
77365;PMS5003;66430;50.182;11.704;2024-02-21T10:26:05;14;12;
77365;PMS5003;66430;50.182;11.704;2024-02-21T10:28:27;10;10;
77365;PMS5003;66430;50.182;11.704;2024-02-21T10:30:53;11;11;
77365;PMS5003;66430;50.182;11.704;2024-02-21T10:33:19;10;8;
77365;PMS5003;66430;50.182;11.704;2024-02-21T10:35:44;8;8;
77365;PMS5003;66430;50.182;11.704;2024-02-21T10:38:09;11;10;
77365;PMS5003;66430;50.182;11.704;2024-02-21T10:40:35;12;10;
77365;PMS5003;66430;50.182;11.704;2024-02-21T10:43:00;9;9;
77365;PMS5003;66430;50.182;11.704;2024-02-21T10:45:28;13;10;
77365;PMS5003;66430;50.182;11.704;2024-02-21T10:47:52;12;9;
77365;PMS5003;66430;50.182;11.704;2024-02-21T10:50:17;10;9;
77365;PMS5003;66430;50.182;11.704;2024-02-21T10:52:44;16;11;
77365;PMS5003;66430;50.182;11.704;2024-02-21T10:55:09;11;11;
77365;PMS5003;66430;50.182;11.704;2024-02-21T10:57:33;11;11;
77365;PMS5003;66430;50.182;11.704;2024-02-21T10:59:58;13;11;
77365;PMS5003;66430;50.182;11.704;2024-02-21T11:02:24;13;13;
77365;PMS5003;66430;50.182;11.704;2024-02-21T11:04:49;12;11;
77365;PMS5003;66430;50.182;11.704;2024-02-21T11:07:14;15;14;
77365;PMS5003;66430;50.182;11.704;2024-02-21T11:09:39;11;11;
77365;PMS5003;66430;50.182;11.704;2024-02-21T11:12:05;15;10;
77365;PMS5003;66430;50.182;11.704;2024-02-21T11:14:30;11;11;
77365;PMS5003;66430;50.182;11.704;2024-02-21T11:16:55;13;11;
77365;PMS5003;66430;50.182;11.704;2024-02-21T11:19:21;17;11;
77365;PMS5003;66430;50.182;11.704;2024-02-21T11:21:46;17;15;
77365;PMS5003;66430;50.182;11.704;2024-02-21T11:24:11;15;12;
77365;PMS5003;66430;50.182;11.704;2024-02-21T11:26:37;14;13;
77365;PMS5003;66430;50.182;11.704;2024-02-21T11:29:02;11;11;
77365;PMS5003;66430;50.182;11.704;2024-02-21T11:31:37;9;8;
77365;PMS5003;66430;50.182;11.704;2024-02-21T11:33:53;14;11;
77365;PMS5003;66430;50.182;11.704;2024-02-21T11:36:23;16;13;
77365;PMS5003;66430;50.182;11.704;2024-02-21T11:38:44;13;11;
77365;PMS5003;66430;50.182;11.704;2024-02-21T11:41:09;13;11;
77365;PMS5003;66430;50.182;11.704;2024-02-21T11:43:34;11;11;
77365;PMS5003;66430;50.182;11.704;2024-02-21T11:46:00;13;12;
77365;PMS5003;66430;50.182;11.704;2024-02-21T11:48:25;12;11;
77365;PMS5003;66430;50.182;11.704;2024-02-21T11:50:54;12;11;
77365;PMS5003;66430;50.182;11.704;2024-02-21T11:53:17;10;10;
77365;PMS5003;66430;50.182;11.704;2024-02-21T11:55:41;14;12;
77365;PMS5003;66430;50.182;11.704;2024-02-21T11:58:07;10;9;
77365;PMS5003;66430;50.182;11.704;2024-02-21T12:00:32;12;10;
77365;PMS5003;66430;50.182;11.704;2024-02-21T12:02:58;11;9;
77365;PMS5003;66430;50.182;11.704;2024-02-21T12:05:23;10;10;
77365;PMS5003;66430;50.182;11.704;2024-02-21T12:07:49;9;8;
77365;PMS5003;66430;50.182;11.704;2024-02-21T12:10:14;10;9;
77365;PMS5003;66430;50.182;11.704;2024-02-21T12:12:39;15;13;
77365;PMS5003;66430;50.182;11.704;2024-02-21T12:15:05;11;11;
77365;PMS5003;66430;50.182;11.704;2024-02-21T12:17:30;10;9;
77365;PMS5003;66430;50.182;11.704;2024-02-21T12:19:56;9;9;
77365;PMS5003;66430;50.182;11.704;2024-02-21T12:22:21;10;10;
77365;PMS5003;66430;50.182;11.704;2024-02-21T12:24:46;11;10;
77365;PMS5003;66430;50.182;11.704;2024-02-21T12:27:12;8;8;
77365;PMS5003;66430;50.182;11.704;2024-02-21T12:29:37;10;10;
77365;PMS5003;66430;50.182;11.704;2024-02-21T12:32:02;8;8;
77365;PMS5003;66430;50.182;11.704;2024-02-21T12:34:30;10;9;
77365;PMS5003;66430;50.182;11.704;2024-02-21T12:36:53;9;8;
77365;PMS5003;66430;50.182;11.704;2024-02-21T12:39:18;9;9;
77365;PMS5003;66430;50.182;11.704;2024-02-21T12:41:45;8;8;
77365;PMS5003;66430;50.182;11.704;2024-02-21T12:44:09;7;7;
77365;PMS5003;66430;50.182;11.704;2024-02-21T12:46:35;10;10;
77365;PMS5003;66430;50.182;11.704;2024-02-21T12:49:00;8;8;
77365;PMS5003;66430;50.182;11.704;2024-02-21T12:51:25;9;8;
77365;PMS5003;66430;50.182;11.704;2024-02-21T12:53:51;9;8;
77365;PMS5003;66430;50.182;11.704;2024-02-21T12:56:22;9;9;
77365;PMS5003;66430;50.182;11.704;2024-02-21T12:58:42;9;9;
77365;PMS5003;66430;50.182;11.704;2024-02-21T13:01:07;9;9;
77365;PMS5003;66430;50.182;11.704;2024-02-21T13:03:33;7;5;
77365;PMS5003;66430;50.182;11.704;2024-02-21T13:05:58;8;7;
77365;PMS5003;66430;50.182;11.704;2024-02-21T13:08:23;7;7;
77365;PMS5003;66430;50.182;11.704;2024-02-21T13:10:49;9;8;
77365;PMS5003;66430;50.182;11.704;2024-02-21T13:13:14;9;7;
77365;PMS5003;66430;50.182;11.704;2024-02-21T13:15:45;6;6;
77365;PMS5003;66430;50.182;11.704;2024-02-21T13:18:05;9;7;
77365;PMS5003;66430;50.182;11.704;2024-02-21T13:20:30;9;9;
77365;PMS5003;66430;50.182;11.704;2024-02-21T13:22:56;12;8;
77365;PMS5003;66430;50.182;11.704;2024-02-21T13:25:21;8;7;
77365;PMS5003;66430;50.182;11.704;2024-02-21T13:27:47;7;7;
77365;PMS5003;66430;50.182;11.704;2024-02-21T13:30:13;5;5;
77365;PMS5003;66430;50.182;11.704;2024-02-21T13:32:39;8;7;
77365;PMS5003;66430;50.182;11.704;2024-02-21T13:35:03;15;12;
77365;PMS5003;66430;50.182;11.704;2024-02-21T13:37:28;7;7;
77365;PMS5003;66430;50.182;11.704;2024-02-21T13:39:54;8;7;
77365;PMS5003;66430;50.182;11.704;2024-02-21T13:42:19;8;7;
77365;PMS5003;66430;50.182;11.704;2024-02-21T13:44:45;7;7;
77365;PMS5003;66430;50.182;11.704;2024-02-21T13:47:10;8;8;
77365;PMS5003;66430;50.182;11.704;2024-02-21T13:49:35;8;8;
77365;PMS5003;66430;50.182;11.704;2024-02-21T13:52:01;10;9;
77365;PMS5003;66430;50.182;11.704;2024-02-21T13:54:26;8;6;
77365;PMS5003;66430;50.182;11.704;2024-02-21T13:56:52;5;5;
77365;PMS5003;66430;50.182;11.704;2024-02-21T13:59:17;7;6;
77365;PMS5003;66430;50.182;11.704;2024-02-21T14:01:42;6;5;
77365;PMS5003;66430;50.182;11.704;2024-02-21T14:04:08;6;5;
77365;PMS5003;66430;50.182;11.704;2024-02-21T14:06:33;5;5;
77365;PMS5003;66430;50.182;11.704;2024-02-21T14:08:59;6;6;
77365;PMS5003;66430;50.182;11.704;2024-02-21T14:11:24;5;5;
77365;PMS5003;66430;50.182;11.704;2024-02-21T14:13:50;8;8;
77365;PMS5003;66430;50.182;11.704;2024-02-21T14:16:15;5;5;
77365;PMS5003;66430;50.182;11.704;2024-02-21T14:18:40;5;5;
77365;PMS5003;66430;50.182;11.704;2024-02-21T14:21:06;6;5;
77365;PMS5003;66430;50.182;11.704;2024-02-21T14:23:32;7;7;
77365;PMS5003;66430;50.182;11.704;2024-02-21T14:25:57;3;3;
77365;PMS5003;66430;50.182;11.704;2024-02-21T14:28:22;4;4;
77365;PMS5003;66430;50.182;11.704;2024-02-21T14:30:48;7;7;
77365;PMS5003;66430;50.182;11.704;2024-02-21T14:33:13;9;9;
77365;PMS5003;66430;50.182;11.704;2024-02-21T14:35:38;5;5;
77365;PMS5003;66430;50.182;11.704;2024-02-21T14:38:04;5;5;
77365;PMS5003;66430;50.182;11.704;2024-02-21T14:40:29;5;3;
77365;PMS5003;66430;50.182;11.704;2024-02-21T14:42:54;6;4;
77365;PMS5003;66430;50.182;11.704;2024-02-21T14:45:19;6;4;
77365;PMS5003;66430;50.182;11.704;2024-02-21T14:47:45;5;5;
77365;PMS5003;66430;50.182;11.704;2024-02-21T14:50:10;5;4;
77365;PMS5003;66430;50.182;11.704;2024-02-21T14:52:36;5;4;
77365;PMS5003;66430;50.182;11.704;2024-02-21T14:55:01;6;6;
77365;PMS5003;66430;50.182;11.704;2024-02-21T14:57:26;4;3;
77365;PMS5003;66430;50.182;11.704;2024-02-21T14:59:52;3;3;
77365;PMS5003;66430;50.182;11.704;2024-02-21T15:02:17;4;4;
77365;PMS5003;66430;50.182;11.704;2024-02-21T15:04:43;3;3;
77365;PMS5003;66430;50.182;11.704;2024-02-21T15:07:09;4;4;
77365;PMS5003;66430;50.182;11.704;2024-02-21T15:09:34;4;4;
77365;PMS5003;66430;50.182;11.704;2024-02-21T15:11:59;5;5;
77365;PMS5003;66430;50.182;11.704;2024-02-21T15:14:24;5;3;
77365;PMS5003;66430;50.182;11.704;2024-02-21T15:16:50;5;5;
77365;PMS5003;66430;50.182;11.704;2024-02-21T15:19:15;6;5;
77365;PMS5003;66430;50.182;11.704;2024-02-21T15:21:41;4;4;
77365;PMS5003;66430;50.182;11.704;2024-02-21T15:24:06;5;5;
77365;PMS5003;66430;50.182;11.704;2024-02-21T15:26:32;5;4;
77365;PMS5003;66430;50.182;11.704;2024-02-21T15:28:57;6;5;
77365;PMS5003;66430;50.182;11.704;2024-02-21T15:31:23;3;3;
77365;PMS5003;66430;50.182;11.704;2024-02-21T15:33:48;4;3;
77365;PMS5003;66430;50.182;11.704;2024-02-21T15:36:13;8;6;
77365;PMS5003;66430;50.182;11.704;2024-02-21T15:38:39;6;5;
77365;PMS5003;66430;50.182;11.704;2024-02-21T15:41:04;3;3;
77365;PMS5003;66430;50.182;11.704;2024-02-21T15:43:30;5;4;
77365;PMS5003;66430;50.182;11.704;2024-02-21T15:45:55;6;6;
77365;PMS5003;66430;50.182;11.704;2024-02-21T15:48:21;7;5;
77365;PMS5003;66430;50.182;11.704;2024-02-21T15:50:46;6;6;
77365;PMS5003;66430;50.182;11.704;2024-02-21T15:53:11;7;5;
77365;PMS5003;66430;50.182;11.704;2024-02-21T15:55:37;7;5;
77365;PMS5003;66430;50.182;11.704;2024-02-21T15:58:02;10;8;
77365;PMS5003;66430;50.182;11.704;2024-02-21T16:00:28;9;5;